Time;durP1;ratioP1;P1;durP2;ratioP2;P2;SDS_P1;SDS_P2;PMS_P1;PMS_P2;Temp;Humidity;BMP_temperature;BMP_pressure;BME280_temperature;BME280_humidity;BME280_pressure;Samples;Min_cycle;Max_cycle;Signal;HPM_P1;HPM_P2
2021/08/06 00:00:57;;;;;;;12.98;3.10;;;16.50;99.90;;;16.09;100.00;100255.75;4119177;28;20035;-74
2021/08/06 00:02:58;;;;;;;16.70;4.63;;;16.40;99.90;;;16.06;100.00;100256.16;4135245;28;20030;-74
2021/08/06 00:05:00;;;;;;;11.68;3.42;;;16.40;99.90;;;15.96;100.00;100239.75;4135296;28;20038;-74
2021/08/06 00:07:01;;;;;;;14.95;3.80;;;16.40;99.90;;;16.11;100.00;100247.56;4103222;29;20086;-74
2021/08/06 00:09:03;;;;;;;31.65;5.03;;;16.50;99.90;;;16.22;100.00;100247.75;4119174;28;20038;-74
2021/08/06 00:11:04;;;;;;;17.15;3.75;;;16.50;99.90;;;16.26;100.00;100248.16;4120460;28;20102;-74
2021/08/06 00:13:05;;;;;;;13.45;3.67;;;16.50;99.90;;;16.19;100.00;100245.50;4119211;28;20037;-74
2021/08/06 00:15:07;;;;;;;12.98;4.03;;;16.60;99.90;;;16.18;100.00;100259.84;4118668;28;20462;-74
2021/08/06 00:17:08;;;;;;;22.35;5.20;;;16.60;99.90;;;16.05;100.00;100265.97;4120380;28;20031;-74
2021/08/06 00:19:09;;;;;;;14.15;3.92;;;16.50;99.90;;;15.92;100.00;100270.44;4119152;28;20045;-74
2021/08/06 00:21:10;;;;;;;10.32;3.35;;;16.60;99.90;;;15.85;100.00;100259.00;4120248;28;20078;-74
2021/08/06 00:23:11;;;;;;;11.68;2.42;;;16.40;99.90;;;15.85;100.00;100261.66;4118779;28;20035;-74
2021/08/06 00:25:13;;;;;;;12.93;3.13;;;16.40;99.90;;;15.84;100.00;100278.63;4118759;28;20033;-74
2021/08/06 00:27:14;;;;;;;10.57;3.15;;;16.40;99.90;;;15.83;100.00;100266.34;4120100;28;20019;-74
2021/08/06 00:29:14;;;;;;;6.72;2.38;;;16.40;99.90;;;15.68;100.00;100276.34;4120157;28;20030;-74
2021/08/06 00:31:15;;;;;;;7.35;2.10;;;16.30;99.90;;;15.57;100.00;100275.06;4118700;28;20058;-74
2021/08/06 00:33:16;;;;;;;7.07;2.45;;;16.20;99.90;;;15.55;100.00;100266.47;4134851;28;20034;-74
2021/08/06 00:35:17;;;;;;;5.00;1.50;;;16.20;99.90;;;15.67;100.00;100264.06;4134929;28;20101;-74
2021/08/06 00:37:18;;;;;;;8.60;2.15;;;16.20;99.90;;;15.62;100.00;100261.19;4118754;28;20105;-74
2021/08/06 00:39:19;;;;;;;8.75;3.30;;;16.20;99.90;;;15.62;100.00;100251.34;4118812;28;20030;-74
2021/08/06 00:41:20;;;;;;;7.22;2.60;;;16.10;99.90;;;15.65;100.00;100258.13;4118511;28;20155;-74
2021/08/06 00:43:22;;;;;;;4.65;2.47;;;16.10;99.90;;;15.43;100.00;100262.72;4134920;28;20034;-74
2021/08/06 00:45:23;;;;;;;8.15;2.72;;;16.00;99.90;;;15.33;100.00;100257.78;4102115;28;20019;-74
2021/08/06 00:47:24;;;;;;;7.63;2.47;;;16.00;99.90;;;15.44;100.00;100257.19;4150914;28;20021;-74
2021/08/06 00:49:25;;;;;;;5.63;2.20;;;16.00;99.90;;;15.54;100.00;100266.66;4134839;28;20506;-74
2021/08/06 00:51:26;;;;;;;9.63;2.65;;;16.00;99.90;;;15.57;100.00;100277.72;4102697;28;20050;-74
2021/08/06 00:53:28;;;;;;;7.47;2.05;;;16.00;99.90;;;15.41;100.00;100273.53;4118758;28;20019;-74
2021/08/06 00:55:29;;;;;;;8.95;2.72;;;16.00;99.90;;;15.43;100.00;100252.91;4134752;28;20518;-74
2021/08/06 00:57:30;;;;;;;6.22;2.05;;;16.00;99.90;;;15.53;100.00;100267.69;4102428;28;20088;-74
2021/08/06 00:59:31;;;;;;;5.32;2.33;;;16.00;99.90;;;15.49;100.00;100268.09;4118725;28;20062;-74
2021/08/06 01:01:35;;;;;;;8.30;3.13;;;16.00;99.90;;;15.48;100.00;100274.44;4134375;28;20022;-74
2021/08/06 01:03:49;;;;;;;;;;;16.00;99.90;;;15.42;100.00;100267.22;4118991;28;20074;-74
2021/08/06 01:06:08;;;;;;;6.95;2.50;;;16.00;99.90;;;15.32;100.00;100258.78;4119816;28;19916;-74
2021/08/06 01:08:24;;;;;;;5.50;2.08;;;15.90;99.90;;;15.34;100.00;100267.41;4119703;28;20121;-74
2021/08/06 01:10:36;;;;;;;5.78;1.77;;;15.90;99.90;;;15.50;100.00;100272.38;4133416;28;20034;-75
2021/08/06 01:12:56;;;;;;;5.35;1.95;;;16.00;99.90;;;15.41;100.00;100259.44;4119646;28;20027;-74
2021/08/06 01:15:01;;;;;;;8.45;1.55;;;16.00;99.90;;;15.25;100.00;100257.13;4119459;28;20449;-74
2021/08/06 01:17:02;;;;;;;;;;;15.90;99.90;;;15.24;100.00;100258.97;4118739;28;20041;-74
2021/08/06 01:19:24;;;;;;;5.38;2.10;;;15.90;99.90;;;15.35;100.00;100254.94;4118692;28;20360;-74
2021/08/06 01:21:29;;;;;;;4.60;1.85;;;15.80;99.90;;;15.30;100.00;100258.16;4118576;28;20038;-74
2021/08/06 01:23:40;;;;;;;5.82;1.90;;;15.90;99.90;;;15.31;100.00;100243.88;4150404;28;20030;-74
2021/08/06 01:25:57;;;;;;;7.65;2.30;;;15.80;99.90;;;15.46;100.00;100257.00;4093426;28;20102;-74
2021/08/06 01:27:58;;;;;;;8.18;2.47;;;15.80;99.90;;;15.36;100.00;100241.44;4119547;28;20035;-74
2021/08/06 01:29:59;;;;;;;4.03;1.60;;;15.80;99.90;;;15.37;100.00;100252.88;4101879;28;20066;-74
2021/08/06 01:32:00;;;;;;;4.00;1.85;;;15.80;99.90;;;15.36;100.00;100245.91;4119593;28;20041;-74
2021/08/06 01:34:01;;;;;;;4.40;2.28;;;15.70;99.90;;;15.30;100.00;100247.53;4118443;28;20454;-74
2021/08/06 01:36:03;;;;;;;7.88;2.45;;;15.70;99.90;;;15.27;100.00;100247.94;4150614;28;20068;-74
2021/08/06 01:38:04;;;;;;;6.40;2.67;;;15.70;99.90;;;15.32;100.00;100258.00;4118073;28;20027;-74
2021/08/06 01:40:09;;;;;;;6.63;1.90;;;15.70;99.90;;;15.36;100.00;100260.03;4134269;28;20122;-74
2021/08/06 01:42:41;;;;;;;7.75;1.70;;;15.70;99.90;;;15.38;100.00;100258.00;4118056;28;20066;-74
2021/08/06 01:44:54;;;;;;;9.70;2.40;;;15.70;99.90;;;15.38;100.00;100263.31;4107376;28;20027;-74
2021/08/06 01:47:00;;;;;;;5.95;1.58;;;15.70;99.90;;;15.41;100.00;100262.91;4133988;28;20022;-74
2021/08/06 01:49:12;;;;;;;4.75;1.90;;;15.70;99.90;;;15.47;100.00;100256.81;4118385;28;20034;-74
2021/08/06 01:51:14;;;;;;;8.18;1.70;;;15.80;99.90;;;15.44;100.00;100264.38;4118357;28;20035;-74
2021/08/06 01:53:19;;;;;;;6.22;1.90;;;15.80;99.90;;;15.45;100.00;100260.69;4118315;28;20027;-74
2021/08/06 01:55:21;;;;;;;8.02;2.22;;;15.80;99.90;;;15.59;100.00;100256.28;4119267;28;20031;-74
2021/08/06 01:57:23;;;;;;;8.70;2.50;;;15.90;99.90;;;15.63;100.00;100258.31;4137062;28;20045;-74
2021/08/06 01:59:27;;;;;;;7.95;2.22;;;15.90;99.90;;;15.76;100.00;100263.69;4137329;28;20027;-74
2021/08/06 02:01:28;;;;;;;7.78;2.00;;;16.00;99.90;;;15.64;100.00;100259.13;4105051;28;20031;-74
2021/08/06 02:03:29;;;;;;;7.80;2.47;;;15.90;99.90;;;15.69;100.00;100251.38;4122269;28;20038;-74
2021/08/06 02:05:31;;;;;;;6.68;1.98;;;16.00;99.90;;;15.63;100.00;100253.00;4120900;28;20438;-74
2021/08/06 02:07:32;;;;;;;10.27;2.40;;;16.00;99.90;;;15.57;100.00;100252.97;4104939;29;20030;-74
2021/08/06 02:09:35;;;;;;;10.07;2.10;;;15.90;99.90;;;15.65;100.00;100255.47;4121073;28;20023;-74
2021/08/06 02:11:36;;;;;;;11.15;2.55;;;15.90;99.90;;;15.58;100.00;100239.50;4120883;28;20018;-74
2021/08/06 02:13:39;;;;;;;7.55;1.85;;;15.90;99.90;;;15.58;100.00;100247.47;4120745;28;20061;-74
2021/08/06 02:15:48;;;;;;;11.60;1.80;;;15.90;99.90;;;15.67;100.00;100248.94;4120737;28;20023;-74
2021/08/06 02:17:51;;;;;;;10.27;1.90;;;15.90;99.90;;;15.57;100.00;100247.66;4104921;28;20118;-74
2021/08/06 02:19:53;;;;;;;6.10;2.00;;;15.90;99.90;;;15.55;100.00;100239.91;4136870;28;20027;-74
2021/08/06 02:21:57;;;;;;;9.57;2.05;;;15.90;99.90;;;15.53;100.00;100243.78;4120620;28;20412;-74
2021/08/06 02:24:05;;;;;;;9.02;2.10;;;15.90;99.90;;;15.60;100.00;100252.56;4121857;28;20023;-74
2021/08/06 02:26:07;;;;;;;8.88;2.20;;;15.90;99.90;;;15.60;100.00;100248.09;4120591;28;20030;-74
2021/08/06 02:28:08;;;;;;;8.48;2.42;;;15.90;99.90;;;15.57;100.00;100258.28;4120486;28;20030;-74
2021/08/06 02:30:11;;;;;;;8.40;2.17;;;16.00;99.90;;;15.64;100.00;100254.66;4120394;28;20035;-74
2021/08/06 02:32:12;;;;;;;7.45;2.10;;;16.00;99.90;;;15.70;100.00;100258.34;4120548;28;20031;-74
2021/08/06 02:34:16;;;;;;;6.38;1.75;;;16.10;99.90;;;15.56;100.00;100238.06;4120556;28;20031;-74
2021/08/06 02:36:17;;;;;;;9.38;2.88;;;16.00;99.90;;;15.64;100.00;100253.81;4104491;28;20118;-74
2021/08/06 02:38:23;;;;;;;8.93;2.05;;;16.00;99.90;;;15.61;100.00;100255.03;4120617;28;20039;-74
2021/08/06 02:40:25;;;;;;;8.35;2.47;;;16.00;99.90;;;15.69;100.00;100256.69;4121513;28;20069;-74
2021/08/06 02:42:25;;;;;;;10.48;2.10;;;16.00;99.90;;;15.74;100.00;100257.72;4136441;28;20462;-74
2021/08/06 02:44:27;;;;;;;7.53;2.58;;;16.00;99.90;;;15.65;100.00;100242.19;4136470;28;20056;-74
2021/08/06 02:46:28;;;;;;;7.60;2.53;;;16.00;99.90;;;15.74;100.00;100256.94;4136289;28;20541;-74
2021/08/06 02:48:29;;;;;;;4.65;1.98;;;16.10;99.90;;;15.73;100.00;100249.97;4120346;28;20027;-74
2021/08/06 02:50:30;;;;;;;9.68;2.20;;;16.10;99.90;;;15.73;100.00;100241.97;4152540;28;20112;-74
2021/08/06 02:52:31;;;;;;;9.98;2.20;;;16.10;99.90;;;15.80;100.00;100248.16;4120256;28;20158;-74
2021/08/06 02:54:34;;;;;;;12.25;2.42;;;16.10;99.90;;;15.77;100.00;100248.53;4120667;28;20031;-74
2021/08/06 02:56:35;;;;;;;9.23;2.38;;;16.20;99.90;;;15.73;100.00;100250.78;4120282;28;20041;-74
2021/08/06 02:58:36;;;;;;;12.93;2.85;;;16.20;99.90;;;15.71;100.00;100252.00;4121402;28;20118;-74
2021/08/06 03:00:37;;;;;;;10.98;2.90;;;16.20;99.90;;;15.78;100.00;100263.47;4119844;28;20541;-74
2021/08/06 03:02:38;;;;;;;7.70;2.03;;;16.20;99.90;;;15.78;100.00;100252.81;4152414;28;20057;-74
2021/08/06 03:04:39;;;;;;;8.82;2.80;;;16.10;99.90;;;15.72;100.00;100251.78;4120276;28;20030;-74
2021/08/06 03:06:40;;;;;;;12.23;2.88;;;16.20;99.90;;;15.70;100.00;100251.19;4135634;28;20502;-74
2021/08/06 03:08:41;;;;;;;12.80;2.45;;;16.10;99.90;;;15.81;100.00;100249.75;4136119;28;20390;-74
2021/08/06 03:10:42;;;;;;;13.90;3.67;;;16.10;99.90;;;15.85;100.00;100257.16;4121356;28;20027;-74
2021/08/06 03:12:43;;;;;;;8.20;3.22;;;16.20;99.90;;;15.73;100.00;100241.97;4121269;28;20062;-74
2021/08/06 03:14:44;;;;;;;10.93;2.75;;;16.20;99.90;;;15.72;100.00;100241.16;4120091;28;20035;-74
2021/08/06 03:16:45;;;;;;;10.63;3.85;;;16.20;99.90;;;15.71;100.00;100244.03;4120766;28;20461;-74
2021/08/06 03:18:46;;;;;;;13.45;2.80;;;16.10;99.90;;;15.83;100.00;100247.75;4120141;28;20031;-74
2021/08/06 03:20:46;;;;;;;11.13;2.80;;;16.20;99.90;;;15.61;100.00;100255.03;4136144;28;20033;-74
2021/08/06 03:22:49;;;;;;;13.40;3.17;;;16.10;99.90;;;15.71;100.00;100260.78;4119901;28;20042;-74
2021/08/06 03:24:50;;;;;;;9.00;3.10;;;16.10;99.90;;;15.72;100.00;100259.78;4120968;28;20027;-74
2021/08/06 03:26:51;;;;;;;9.85;2.83;;;16.20;99.90;;;15.80;100.00;100258.78;4120036;28;20027;-74
2021/08/06 03:28:52;;;;;;;11.82;3.55;;;16.20;99.90;;;15.85;100.00;100261.66;4121101;28;20026;-73
2021/08/06 03:30:54;;;;;;;13.10;3.00;;;16.20;99.90;;;15.85;100.00;100256.31;4119629;28;20113;-74
2021/08/06 03:32:55;;;;;;;13.43;2.90;;;16.20;99.90;;;15.88;100.00;100253.25;4135776;28;20073;-74
2021/08/06 03:34:56;;;;;;;12.15;3.15;;;16.30;99.90;;;15.80;100.00;100240.16;4136174;28;20108;-74
2021/08/06 03:36:57;;;;;;;11.48;3.00;;;16.30;99.90;;;15.99;100.00;100250.00;4135838;28;20052;-74
2021/08/06 03:38:58;;;;;;;12.30;2.97;;;16.30;99.90;;;15.96;100.00;100248.56;4120906;28;20059;-74
2021/08/06 03:40:58;;;;;;;14.07;3.40;;;16.30;99.90;;;15.96;100.00;100253.88;4135421;28;20261;-74
2021/08/06 03:42:59;;;;;;;17.58;4.00;;;16.30;99.90;;;15.96;100.00;100232.59;4135693;28;20113;-74
2021/08/06 03:45:00;;;;;;;11.40;2.92;;;16.30;99.90;;;16.08;100.00;100251.44;4120552;28;20509;-74
2021/08/06 03:47:01;;;;;;;12.57;2.50;;;16.40;99.90;;;16.11;100.00;100260.84;4119578;28;20085;-74
2021/08/06 03:49:02;;;;;;;14.95;3.85;;;16.40;99.90;;;16.06;100.00;100248.19;4120651;28;20031;-74
2021/08/06 03:51:03;;;;;;;12.18;3.78;;;16.40;99.90;;;16.01;100.00;100239.97;4119536;28;20101;-74
2021/08/06 03:53:04;;;;;;;12.38;3.00;;;16.40;99.90;;;15.98;100.00;100251.00;4120688;28;20035;-74
2021/08/06 03:55:05;;;;;;;10.50;3.40;;;16.40;99.90;;;15.90;100.00;100253.88;4119587;28;20034;-74
2021/08/06 03:57:06;;;;;;;13.75;3.08;;;16.40;99.90;;;15.97;100.00;100244.06;4135367;28;20018;-74
2021/08/06 03:59:07;;;;;;;13.00;3.53;;;16.40;99.90;;;16.04;100.00;100256.34;4151513;28;20029;-74
2021/08/06 04:01:08;;;;;;;9.23;3.45;;;16.40;99.90;;;15.96;100.00;100253.06;4119035;28;20094;-74
2021/08/06 04:03:09;;;;;;;11.32;2.47;;;16.40;99.90;;;15.99;100.00;100253.47;4135328;28;20101;-74
2021/08/06 04:05:11;;;;;;;11.77;2.80;;;16.40;99.90;;;16.07;100.00;100254.31;4120641;28;20056;-74
2021/08/06 04:07:12;;;;;;;11.00;3.03;;;16.40;99.90;;;15.99;100.00;100255.31;4103291;28;20108;-74
2021/08/06 04:09:13;;;;;;;10.90;2.40;;;16.40;99.90;;;16.01;100.00;100262.06;4120444;28;20114;-74
2021/08/06 04:11:14;;;;;;;10.27;2.50;;;16.40;99.90;;;16.04;100.00;100255.53;4120350;28;20038;-74
2021/08/06 04:13:15;;;;;;;8.15;2.30;;;16.40;99.90;;;16.07;100.00;100260.44;4151330;28;20029;-74
2021/08/06 04:15:17;;;;;;;8.45;1.67;;;16.40;99.90;;;16.13;100.00;100274.78;4150930;28;20069;-74
2021/08/06 04:17:18;;;;;;;8.23;2.30;;;16.40;99.90;;;16.11;99.68;100277.66;4119022;28;20027;-74
2021/08/06 04:19:19;;;;;;;4.35;1.52;;;16.50;99.90;;;16.12;99.97;100279.28;4118243;28;20089;-74
2021/08/06 04:21:20;;;;;;;8.38;2.47;;;16.50;99.90;;;16.17;99.98;100279.50;4118970;28;20073;-74
2021/08/06 04:23:21;;;;;;;7.55;2.78;;;16.50;99.90;;;16.01;100.00;100279.88;4134779;28;20092;-74
2021/08/06 04:25:22;;;;;;;12.38;2.50;;;16.50;99.90;;;16.13;99.93;100283.56;4120231;28;20023;-74
2021/08/06 04:27:23;;;;;;;5.85;1.58;;;16.50;99.90;;;16.10;100.00;100286.63;4118847;28;20038;-74
2021/08/06 04:29:24;;;;;;;6.47;1.92;;;16.50;99.90;;;15.99;100.00;100290.72;4120172;28;20549;-74
2021/08/06 04:31:25;;;;;;;8.38;1.90;;;16.50;99.90;;;15.91;100.00;100290.09;4118473;28;20031;-74
2021/08/06 04:33:26;;;;;;;7.32;2.08;;;16.40;99.90;;;16.01;100.00;100283.34;4118981;28;20505;-74
2021/08/06 04:35:27;;;;;;;8.43;2.58;;;16.40;99.90;;;16.13;100.00;100288.09;4120337;28;20043;-74
2021/08/06 04:37:28;;;;;;;10.13;2.85;;;16.50;99.90;;;16.09;100.00;100293.00;4118830;28;20030;-74
2021/08/06 04:39:29;;;;;;;9.55;2.40;;;16.40;99.90;;;16.14;100.00;100282.56;4134548;28;20070;-74
2021/08/06 04:41:30;;;;;;;11.65;2.17;;;16.40;99.90;;;15.96;100.00;100287.66;4118498;28;20118;-74
2021/08/06 04:43:31;;;;;;;10.52;2.58;;;16.50;99.90;;;15.94;100.00;100289.69;4118733;28;20031;-74
2021/08/06 04:45:32;;;;;;;10.25;2.83;;;16.50;99.90;;;16.03;100.00;100293.81;4096957;29;20072;-74
2021/08/06 04:47:33;;;;;;;9.57;2.75;;;16.40;99.90;;;16.03;100.00;100297.28;4116462;28;20110;-74
2021/08/06 04:49:34;;;;;;;16.52;3.13;;;16.40;99.90;;;16.10;100.00;100294.63;4134737;28;20037;-74
2021/08/06 04:51:35;;;;;;;10.85;2.33;;;16.40;99.90;;;16.08;100.00;100299.34;4134401;28;20486;-73
2021/08/06 04:53:36;;;;;;;7.85;2.53;;;16.40;99.90;;;15.90;100.00;100291.13;4118588;28;20023;-73
2021/08/06 04:55:37;;;;;;;7.65;2.35;;;16.40;99.90;;;15.94;100.00;100290.53;4118296;28;20030;-73
2021/08/06 04:57:39;;;;;;;11.95;2.50;;;16.40;99.90;;;16.12;100.00;100307.75;4119863;28;20022;-73
2021/08/06 04:59:40;;;;;;;10.93;2.80;;;16.40;99.90;;;15.90;100.00;100301.75;4118289;28;20023;-73
2021/08/06 05:01:41;;;;;;;8.43;2.28;;;16.40;99.90;;;15.91;100.00;100298.91;4118102;28;20027;-73
2021/08/06 05:03:41;;;;;;;11.32;2.60;;;16.40;99.90;;;15.81;100.00;100298.47;4119608;28;20042;-73
2021/08/06 05:05:42;;;;;;;15.32;2.53;;;16.30;99.90;;;15.81;100.00;100301.13;4118274;28;20055;-73
2021/08/06 05:07:51;;;;;;;10.65;2.70;;;16.30;99.90;;;15.91;100.00;100314.03;4119622;28;20395;-73
2021/08/06 05:09:52;;;;;;;11.93;3.13;;;16.30;99.90;;;15.96;100.00;100303.59;4118381;28;20098;-73
2021/08/06 05:11:53;;;;;;;12.68;2.47;;;16.30;99.90;;;15.96;100.00;100306.28;4118437;28;20123;-74
2021/08/06 05:13:54;;;;;;;9.90;2.60;;;16.40;99.90;;;15.93;100.00;100312.00;4134490;28;20031;-74
2021/08/06 05:15:55;;;;;;;15.02;4.18;;;16.40;99.90;;;15.98;100.00;100298.91;4134030;28;20038;-74
2021/08/06 05:17:56;;;;;;;11.10;3.22;;;16.40;99.90;;;16.03;100.00;100309.78;4134509;28;20029;-74
2021/08/06 05:19:57;;;;;;;7.75;2.67;;;16.40;99.90;;;16.02;100.00;100298.31;4118230;28;20078;-74
2021/08/06 05:21:57;;;;;;;11.85;2.85;;;16.40;99.90;;;15.96;100.00;100295.63;4134483;28;20537;-74
2021/08/06 05:23:58;;;;;;;11.73;3.00;;;16.40;99.90;;;16.00;100.00;100296.88;4150591;28;20026;-74
2021/08/06 05:25:59;;;;;;;10.30;2.90;;;16.40;99.90;;;16.04;100.00;100298.09;4118001;28;20533;-74
2021/08/06 05:28:00;;;;;;;8.77;2.45;;;16.50;99.90;;;16.07;100.00;100292.38;4119400;28;20037;-74
2021/08/06 05:30:01;;;;;;;10.32;2.72;;;16.50;99.90;;;16.22;100.00;100306.31;4150867;28;20101;-74
2021/08/06 05:32:03;;;;;;;8.95;2.53;;;16.60;99.90;;;16.19;100.00;100298.72;4153698;28;20030;-74
2021/08/06 05:34:04;;;;;;;11.35;2.88;;;16.60;99.90;;;16.24;100.00;100292.81;4121331;28;20089;-74
2021/08/06 05:36:05;;;;;;;12.85;3.72;;;16.60;99.90;;;16.24;100.00;100309.59;4121293;28;20490;-74
2021/08/06 05:38:06;;;;;;;8.13;2.25;;;16.60;99.90;;;16.31;100.00;100299.75;4121269;28;20027;-74
2021/08/06 05:40:08;;;;;;;17.42;2.85;;;16.70;99.90;;;16.34;100.00;100302.03;4153627;28;20077;-74
2021/08/06 05:42:09;;;;;;;18.67;2.88;;;16.70;99.90;;;16.36;100.00;100302.66;4122498;28;20027;-74
2021/08/06 05:44:10;;;;;;;12.45;2.45;;;16.70;99.90;;;16.30;100.00;100310.63;4121287;28;20078;-74
2021/08/06 05:46:11;;;;;;;7.88;2.72;;;16.70;99.90;;;16.25;100.00;100305.06;4137120;28;20482;-74
2021/08/06 05:48:16;;;;;;;8.05;2.17;;;16.70;99.90;;;16.18;100.00;100307.75;4105203;28;20027;-74
2021/08/06 05:50:19;;;;;;;9.95;2.28;;;16.70;99.90;;;16.34;100.00;100310.00;4153468;28;20065;-74
2021/08/06 05:52:20;;;;;;;11.75;2.33;;;16.70;99.90;;;16.37;100.00;100312.25;4137102;28;20058;-74
2021/08/06 05:54:21;;;;;;;14.45;3.58;;;16.80;99.90;;;16.39;100.00;100322.72;4121278;28;20035;-74
2021/08/06 05:56:22;;;;;;;8.05;2.20;;;16.80;99.90;;;16.31;100.00;100315.75;4122501;28;20065;-74
2021/08/06 05:58:23;;;;;;;10.93;2.60;;;16.80;99.90;;;16.24;100.00;100304.28;4122350;28;20023;-74
2021/08/06 06:00:24;;;;;;;17.17;2.80;;;16.80;99.90;;;16.35;100.00;100316.97;4121828;28;20066;-74
2021/08/06 06:02:25;;;;;;;7.28;2.20;;;16.80;99.90;;;16.38;100.00;100319.25;4137142;28;20060;-74
2021/08/06 06:04:25;;;;;;;12.38;3.00;;;16.90;99.90;;;16.44;100.00;100312.28;4122341;28;20027;-74
2021/08/06 06:06:26;;;;;;;11.18;2.38;;;16.90;99.90;;;16.51;99.84;100316.59;4122034;28;20082;-73
2021/08/06 06:08:27;;;;;;;11.88;3.15;;;17.00;99.90;;;16.44;100.00;100323.75;4121182;28;20023;-74
2021/08/06 06:10:29;;;;;;;12.93;2.80;;;17.00;99.90;;;16.53;100.00;100316.38;4136974;28;20038;-74
2021/08/06 06:12:29;;;;;;;14.00;3.42;;;17.00;99.90;;;16.35;98.96;100324.97;4122210;28;20031;-75
2021/08/06 06:14:31;;;;;;;7.93;2.60;;;16.90;99.90;;;16.26;100.00;100328.03;4124075;28;20045;-73
2021/08/06 06:16:32;;;;;;;9.77;2.42;;;16.90;99.90;;;16.30;100.00;100339.91;4121417;28;20041;-74
2021/08/06 06:18:33;;;;;;;11.65;2.60;;;16.80;99.90;;;16.36;100.00;100334.59;4121016;28;20114;-75
2021/08/06 06:20:34;;;;;;;12.05;3.40;;;16.90;99.90;;;16.29;100.00;100344.41;4123141;28;20031;-74
2021/08/06 06:22:35;;;;;;;11.35;3.28;;;16.80;99.90;;;16.22;100.00;100340.13;4136243;28;20112;-74
2021/08/06 06:24:36;;;;;;;8.20;2.40;;;16.80;99.90;;;16.19;100.00;100338.66;4120306;28;20025;-75
2021/08/06 06:26:37;;;;;;;8.48;2.60;;;16.80;99.90;;;16.14;100.00;100335.78;4121769;28;20034;-74
2021/08/06 06:28:38;;;;;;;4.85;2.00;;;16.70;99.90;;;16.18;100.00;100352.16;4136701;28;20077;-74
2021/08/06 06:30:39;;;;;;;6.20;2.03;;;16.80;99.90;;;16.27;100.00;100345.63;4136480;28;20027;-74
2021/08/06 06:32:40;;;;;;;8.98;2.78;;;16.80;99.90;;;16.26;100.00;100336.84;4120465;28;20492;-74
2021/08/06 06:34:41;;;;;;;7.60;2.05;;;16.90;99.90;;;16.27;100.00;100343.81;4136521;28;20057;-74
2021/08/06 06:36:42;;;;;;;8.88;2.33;;;16.90;99.90;;;16.36;100.00;100344.44;4128689;28;20027;-73
2021/08/06 06:38:43;;;;;;;7.82;2.20;;;17.00;99.90;;;16.41;99.74;100347.28;4113197;28;20067;-73
2021/08/06 06:40:44;;;;;;;7.22;2.15;;;17.10;99.90;;;16.37;99.54;100346.88;4114774;28;20054;-73
2021/08/06 06:42:45;;;;;;;4.47;1.20;;;17.10;99.90;;;16.50;99.04;100344.22;4119118;28;20027;-73
2021/08/06 06:44:46;;;;;;;4.97;1.42;;;17.20;99.90;;;16.55;99.19;100346.28;4118858;28;20023;-73
2021/08/06 06:46:47;;;;;;;6.30;1.20;;;17.20;99.90;;;16.51;99.43;100353.88;4104059;28;20058;-73
2021/08/06 06:48:48;;;;;;;7.38;1.60;;;17.30;99.90;;;16.48;99.55;100358.78;4119571;28;20561;-73
2021/08/06 06:50:49;;;;;;;9.70;1.73;;;17.30;99.90;;;16.49;100.00;100365.72;4126624;28;20092;-73
2021/08/06 06:52:50;;;;;;;6.70;2.03;;;17.30;99.90;;;16.41;100.00;100360.59;4119377;28;20050;-73
2021/08/06 06:54:51;;;;;;;8.45;2.38;;;17.30;99.90;;;16.42;100.00;100352.44;4123052;28;20045;-73
2021/08/06 06:56:52;;;;;;;11.52;2.28;;;17.20;99.90;;;16.59;100.00;100353.69;4119784;28;20030;-73
2021/08/06 06:58:53;;;;;;;8.40;1.83;;;17.30;99.90;;;16.67;100.00;100354.50;4134617;28;20089;-74
2021/08/06 07:00:56;;;;;;;9.20;1.85;;;17.40;99.90;;;16.72;100.00;100349.41;4120906;28;20110;-75
2021/08/06 07:02:57;;;;;;;11.60;3.30;;;17.40;99.90;;;16.72;100.00;100350.22;4119789;28;20487;-75
2021/08/06 07:04:58;;;;;;;11.70;2.28;;;17.40;99.90;;;16.75;100.00;100351.66;4117649;28;20093;-74
2021/08/06 07:06:59;;;;;;;9.95;2.35;;;17.50;99.90;;;16.87;100.00;100358.81;4119951;28;20038;-74
2021/08/06 07:09:00;;;;;;;8.77;1.85;;;17.60;99.90;;;17.07;100.00;100364.13;4119953;28;20033;-76
2021/08/06 07:11:03;;;;;;;7.93;1.90;;;17.70;99.90;;;17.14;98.50;100359.59;4121114;28;20063;-76
2021/08/06 07:13:04;;;;;;;7.43;1.92;;;17.80;99.90;;;17.21;98.87;100375.56;4119804;28;20033;-76
2021/08/06 07:15:07;;;;;;;6.40;1.80;;;17.90;99.90;;;17.26;98.09;100365.94;4119558;28;20476;-75
2021/08/06 07:17:08;;;;;;;8.17;1.77;;;17.90;99.90;;;17.28;97.13;100374.53;4120003;28;20034;-76
2021/08/06 07:19:09;;;;;;;8.20;1.80;;;18.00;99.90;;;17.27;97.63;100382.72;4119791;28;20036;-76
2021/08/06 07:21:12;;;;;;;9.23;1.73;;;18.00;99.90;;;17.19;96.30;100381.13;4135648;28;20026;-76
2021/08/06 07:23:13;;;;;;;9.82;1.98;;;18.00;99.90;;;16.94;97.83;100377.44;4151626;28;20034;-76
2021/08/06 07:25:16;;;;;;;4.80;1.52;;;17.90;99.90;;;16.89;97.16;100379.91;4120729;28;20031;-74
2021/08/06 07:27:17;;;;;;;5.88;1.23;;;17.90;99.90;;;16.84;96.36;100374.38;4108195;28;20031;-74
2021/08/06 07:29:18;;;;;;;7.55;2.00;;;17.70;99.90;;;16.66;97.41;100374.19;4114480;28;20027;-73
2021/08/06 07:31:19;;;;;;;5.43;1.13;;;17.70;99.90;;;16.64;97.03;100378.88;4135489;28;20038;-72
2021/08/06 07:33:20;;;;;;;3.05;0.90;;;17.60;99.90;;;16.69;98.95;100381.75;4135191;28;20054;-72
2021/08/06 07:35:23;;;;;;;6.85;1.52;;;17.70;99.90;;;16.69;98.23;100373.78;4119298;28;20031;-73
2021/08/06 07:37:26;;;;;;;4.65;1.23;;;17.70;99.90;;;16.97;97.15;100388.50;4119941;28;20031;-72
2021/08/06 07:39:27;;;;;;;5.78;2.05;;;17.90;99.90;;;16.98;95.80;100392.81;4118925;28;20046;-72
2021/08/06 07:41:27;;;;;;;4.18;1.20;;;18.10;99.90;;;17.21;95.27;100392.38;4120090;28;20176;-74
2021/08/06 07:43:28;;;;;;;6.28;1.73;;;18.20;99.90;;;17.22;94.81;100393.19;4120061;28;20553;-75
2021/08/06 07:45:30;;;;;;;3.72;1.20;;;18.30;99.90;;;17.04;93.81;100397.34;4115976;28;20030;-75
2021/08/06 07:47:31;;;;;;;5.15;1.25;;;18.30;99.90;;;17.18;93.78;100395.47;4118193;28;20065;-74
2021/08/06 07:49:31;;;;;;;3.33;1.30;;;18.30;99.90;;;17.04;94.77;100402.66;4120209;28;20027;-75
2021/08/06 07:51:33;;;;;;;6.13;1.10;;;18.30;99.90;;;16.88;95.15;100408.41;4119087;28;20081;-74
2021/08/06 07:53:34;;;;;;;6.35;2.45;;;18.20;99.90;;;16.97;97.17;100398.34;4118713;28;20026;-75
2021/08/06 07:55:34;;;;;;;4.47;0.80;;;18.10;99.90;;;17.02;97.45;100387.91;4102834;29;20531;-72
2021/08/06 07:57:36;;;;;;;3.10;0.85;;;18.10;99.90;;;17.24;96.87;100386.63;4117539;28;20050;-74
2021/08/06 07:59:38;;;;;;;4.25;1.13;;;18.20;99.90;;;17.40;97.31;100385.38;4118685;28;20031;-74
2021/08/06 08:01:39;;;;;;;4.13;1.58;;;18.40;99.90;;;17.45;95.15;100391.72;4117940;28;20236;-74
2021/08/06 08:03:40;;;;;;;2.97;1.15;;;18.50;99.90;;;17.21;95.54;100387.06;4117784;28;20031;-73
2021/08/06 08:05:41;;;;;;;4.03;0.98;;;18.50;99.90;;;17.11;96.26;100381.34;4119864;28;20047;-72
2021/08/06 08:07:42;;;;;;;4.45;1.25;;;18.30;99.90;;;17.23;95.64;100393.00;4119593;28;20033;-73
2021/08/06 08:09:43;;;;;;;5.03;1.33;;;18.20;99.90;;;17.30;96.30;100387.66;4118886;28;20027;-72
2021/08/06 08:11:43;;;;;;;3.72;0.95;;;18.20;99.90;;;17.31;94.96;100375.97;4134820;28;20065;-73
2021/08/06 08:13:44;;;;;;;3.40;1.15;;;18.20;99.90;;;17.30;94.51;100384.97;4118486;28;20030;-72
2021/08/06 08:15:45;;;;;;;3.10;1.00;;;18.20;99.90;;;17.33;92.62;100385.38;4102285;29;20030;-73
2021/08/06 08:17:47;;;;;;;4.70;1.42;;;18.20;99.90;;;17.31;91.84;100387.47;4118081;28;20065;-73
2021/08/06 08:19:47;;;;;;;5.07;1.23;;;18.20;99.90;;;17.36;92.51;100394.81;4134805;28;20027;-74
2021/08/06 08:21:49;;;;;;;4.72;1.25;;;18.30;99.90;;;17.55;91.52;100405.47;4119631;28;20061;-72